Terminal Aerodrome Forecast
Issued by NWS

Home | Current Version | Previous Version | Text Only | Print | Product List | Glossary On
Versions: 1 2 3 4 5 6 7 8 9 10 11 12 13 14 15 16 17 18 19 20 21 22 23 24 25 26 27 28 29 30 31 32 33 34 35 36 37 38 39 40 41 42
000
FTUS44 KSJT 181744 CCA
TAFJCT
TAF COR
KJCT 181744Z 1818/1918 22011KT P6SM BKN250
     FM182000 24014G22KT P6SM BKN250
     FM190100 25010KT P6SM SCT250
     FM190600 32011G18KT P6SM SCT250
     FM190900 34015G23KT P6SM SCT250
     FM191700 34019G28KT P6SM SCT250=

USA.gov is the U.S. government's official web portal to all federal, state and local government web resources and services.